Time;durP1;ratioP1;P1;durP2;ratioP2;P2;SDS_P1;SDS_P2;PMS_P1;PMS_P2;Temp;Humidity;BMP_temperature;BMP_pressure;BME280_temperature;BME280_humidity;BME280_pressure;Samples;Min_cycle;Max_cycle;Signal;HPM_P1;HPM_P2
2021/08/21 00:01:59;;;;;;;6.07;4.93;;;;;;;25.11;71.04;101109.75;4881511;29;20033;-66
2021/08/21 00:04:46;;;;;;;6.97;5.10;;;;;;;25.19;70.78;101107.38;4879902;29;20025;-67
2021/08/21 00:07:32;;;;;;;9.32;4.47;;;;;;;25.19;71.58;101106.53;4879957;29;20099;-66
2021/08/21 00:10:18;;;;;;;7.40;4.47;;;;;;;25.09;71.71;101102.78;4880483;29;20176;-67
2021/08/21 00:13:03;;;;;;;5.97;4.88;;;;;;;25.37;76.70;101107.91;4879867;29;20033;-67
2021/08/21 00:15:49;;;;;;;8.93;5.90;;;;;;;24.80;88.71;101104.84;4879579;29;20040;-66
2021/08/21 00:18:35;;;;;;;11.73;6.07;;;;;;;24.71;94.16;101102.78;4881058;29;20070;-67
2021/08/21 00:21:21;;;;;;;12.15;6.70;;;;;;;24.25;99.75;101100.66;4881571;29;20036;-66
2021/08/21 00:24:07;;;;;;;10.77;6.55;;;;;;;24.05;100.00;101099.34;4881053;29;20124;-66
2021/08/21 00:26:53;;;;;;;11.55;6.78;;;;;;;24.08;100.00;101107.19;4879641;29;20047;-67
2021/08/21 00:29:39;;;;;;;12.88;6.93;;;;;;;23.93;100.00;101105.50;4878363;29;20025;-67
2021/08/21 00:32:25;;;;;;;10.68;6.60;;;;;;;23.75;100.00;101108.50;4881430;29;20048;-66
2021/08/21 00:35:11;;;;;;;11.93;6.13;;;;;;;23.38;100.00;101109.19;4880643;29;20056;-66
2021/08/21 00:37:57;;;;;;;8.93;6.78;;;;;;;23.28;100.00;101112.41;4884412;29;20052;-66
2021/08/21 00:40:43;;;;;;;8.75;6.10;;;;;;;23.20;100.00;101109.38;4882819;29;20300;-67
2021/08/21 00:43:30;;;;;;;10.40;6.43;;;;;;;23.23;100.00;101105.69;4884478;29;20040;-66
2021/08/21 00:46:16;;;;;;;8.23;6.05;;;;;;;23.59;98.13;101105.13;4884138;29;20044;-67
2021/08/21 00:49:02;;;;;;;8.77;6.40;;;;;;;23.42;99.16;101117.75;4884267;29;20119;-66
2021/08/21 00:51:48;;;;;;;10.38;6.95;;;;;;;23.13;100.00;101118.72;4869884;29;20055;-66
2021/08/21 00:54:34;;;;;;;12.00;6.32;;;;;;;23.05;100.00;101121.03;4882873;29;20049;-67
2021/08/21 00:57:21;;;;;;;10.63;6.20;;;;;;;22.93;100.00;101124.44;4870750;29;20093;-66
2021/08/21 01:00:08;;;;;;;10.00;6.75;;;;;;;23.08;100.00;101125.31;4882382;29;20112;-66
2021/08/21 01:02:54;;;;;;;14.57;6.20;;;;;;;22.93;100.00;101120.91;4882667;29;20037;-66
2021/08/21 01:05:40;;;;;;;9.93;6.03;;;;;;;22.95;100.00;101122.53;4882232;29;20037;-66
2021/08/21 01:08:26;;;;;;;15.50;6.20;;;;;;;22.88;100.00;101118.53;4882728;29;20101;-66
2021/08/21 01:11:12;;;;;;;13.05;6.25;;;;;;;22.85;100.00;101120.53;4882131;29;20033;-66
2021/08/21 01:13:59;;;;;;;13.98;6.22;;;;;;;23.12;100.00;101118.81;4883526;29;20043;-66
2021/08/21 01:16:45;;;;;;;11.68;6.20;;;;;;;23.19;100.00;101118.31;4870037;29;20044;-66
2021/08/21 01:19:35;;;;;;;10.35;6.43;;;;;;;22.94;100.00;101125.28;4882397;29;20040;-66
2021/08/21 01:22:25;;;;;;;14.43;6.50;;;;;;;22.76;100.00;101121.09;4881953;29;20071;-67
2021/08/21 01:25:18;;;;;;;13.65;6.75;;;;;;;22.59;100.00;101122.09;4882183;29;20037;-66
2021/08/21 01:28:04;;;;;;;11.00;7.05;;;;;;;22.56;100.00;101121.44;4883048;29;20407;-67
2021/08/21 01:30:50;;;;;;;15.52;7.18;;;;;;;22.30;100.00;101128.28;4882142;29;20029;-66
2021/08/21 01:33:37;;;;;;;14.20;7.43;;;;;;;22.34;100.00;101121.00;4882451;29;20029;-66
2021/08/21 01:36:23;;;;;;;18.08;7.80;;;;;;;22.15;100.00;101126.53;4881715;29;20036;-67
2021/08/21 01:39:11;;;;;;;13.73;7.55;;;;;;;21.78;100.00;101132.28;4882153;29;20029;-66
2021/08/21 01:41:57;;;;;;;15.48;8.05;;;;;;;21.59;100.00;101128.91;4869309;29;20028;-66
2021/08/21 01:44:43;;;;;;;13.70;7.65;;;;;;;21.87;100.00;101131.75;4882185;29;20033;-66
2021/08/21 01:47:29;;;;;;;14.40;7.82;;;;;;;21.83;100.00;101130.19;4881301;29;20101;-67
2021/08/21 01:50:19;;;;;;;12.25;7.53;;;;;;;22.10;100.00;101128.59;4883385;29;20037;-66
2021/08/21 01:53:12;;;;;;;11.57;8.20;;;;;;;22.06;100.00;101136.91;4881416;29;20028;-67
2021/08/21 01:55:58;;;;;;;9.45;7.45;;;;;;;21.93;100.00;101135.88;4881472;29;20560;-66
2021/08/21 01:58:44;;;;;;;11.07;7.97;;;;;;;22.02;100.00;101135.38;4883204;29;20025;-66
2021/08/21 02:01:29;;;;;;;12.30;8.05;;;;;;;22.07;100.00;101127.94;4869316;29;20033;-67
2021/08/21 02:04:16;;;;;;;11.35;7.75;;;;;;;22.02;100.00;101132.69;4881270;29;20036;-66
2021/08/21 02:07:01;;;;;;;12.45;7.93;;;;;;;22.02;100.00;101130.03;4882903;29;20374;-67
2021/08/21 02:09:47;;;;;;;15.98;8.35;;;;;;;22.24;100.00;101131.34;4881610;29;20037;-66
2021/08/21 02:12:33;;;;;;;15.00;7.38;;;;;;;22.11;100.00;101132.16;4881137;29;20142;-67
2021/08/21 02:15:19;;;;;;;11.60;7.47;;;;;;;21.92;100.00;101135.03;4881063;29;20037;-66
2021/08/21 02:18:05;;;;;;;11.30;7.35;;;;;;;22.25;100.00;101130.38;4881492;29;20063;-66
2021/08/21 02:20:51;;;;;;;12.63;7.55;;;;;;;22.24;100.00;101136.69;4881237;29;20029;-67
2021/08/21 02:23:36;;;;;;;12.80;7.63;;;;;;;21.91;100.00;101138.63;4880958;29;20036;-66
2021/08/21 02:26:22;;;;;;;10.25;7.30;;;;;;;21.85;100.00;101136.31;4881122;29;20077;-66
2021/08/21 02:29:14;;;;;;;12.95;7.78;;;;;;;21.89;100.00;101137.84;4880834;29;20029;-66
2021/08/21 02:32:00;;;;;;;12.80;7.85;;;;;;;22.10;100.00;101139.28;4882168;29;20499;-66
2021/08/21 02:34:46;;;;;;;9.32;7.55;;;;;;;22.12;100.00;101141.88;4868800;29;20044;-67
2021/08/21 02:37:31;;;;;;;14.20;8.93;;;;;;;21.55;100.00;101151.38;4881561;29;20036;-66
2021/08/21 02:40:17;;;;;;;14.77;8.75;;;;;;;21.23;100.00;101154.94;4882462;29;20033;-66
2021/08/21 02:43:03;;;;;;;14.13;8.20;;;;;;;21.55;100.00;101153.16;4882265;29;20024;-66
2021/08/21 02:45:49;;;;;;;15.07;8.45;;;;;;;21.64;100.00;101149.97;4881845;29;20029;-67
2021/08/21 02:48:35;;;;;;;10.98;8.07;;;;;;;21.84;100.00;101155.94;4880456;29;20041;-66
2021/08/21 02:51:21;;;;;;;14.48;7.82;;;;;;;21.83;100.00;101153.38;4881915;29;20029;-66
2021/08/21 02:54:06;;;;;;;14.30;7.70;;;;;;;21.50;100.00;101155.22;4881727;29;20060;-66
2021/08/21 02:56:52;;;;;;;12.60;7.53;;;;;;;21.46;100.00;101159.84;4880088;29;20039;-66
2021/08/21 02:59:38;;;;;;;11.88;6.95;;;;;;;21.32;100.00;101158.88;4880349;29;20477;-66
2021/08/21 03:02:24;;;;;;;10.35;7.20;;;;;;;21.29;100.00;101151.03;4880671;29;20037;-66
2021/08/21 03:05:10;;;;;;;7.57;6.78;;;;;;;21.27;100.00;101167.16;4880884;29;20029;-66
2021/08/21 03:07:56;;;;;;;9.23;7.03;;;;;;;21.10;100.00;101169.84;4881050;29;20362;-66
2021/08/21 03:10:42;;;;;;;10.63;6.35;;;;;;;21.16;100.00;101158.88;4880941;29;20072;-66
2021/08/21 03:13:28;;;;;;;9.18;6.38;;;;;;;21.01;100.00;101159.69;4880727;29;20025;-66
2021/08/21 03:16:13;;;;;;;8.45;6.43;;;;;;;21.22;100.00;101171.00;4880188;29;20423;-65
2021/08/21 03:18:59;;;;;;;9.55;6.45;;;;;;;20.89;100.00;101168.28;4880266;29;20092;-66
2021/08/21 03:21:45;;;;;;;9.63;7.00;;;;;;;20.80;100.00;101160.78;4881957;29;20119;-66
2021/08/21 03:24:31;;;;;;;8.77;6.78;;;;;;;21.22;100.00;101171.84;4868150;29;20037;-66
2021/08/21 03:27:16;;;;;;;9.68;6.43;;;;;;;21.51;100.00;101179.16;4881531;29;20048;-66
2021/08/21 03:30:04;;;;;;;7.85;6.32;;;;;;;21.45;100.00;101181.25;4879989;29;20093;-66
2021/08/21 03:32:50;;;;;;;9.85;6.38;;;;;;;21.19;100.00;101177.38;4880591;29;20040;-66
2021/08/21 03:35:36;;;;;;;11.07;6.53;;;;;;;21.11;100.00;101182.25;4879810;29;20029;-66
2021/08/21 03:38:21;;;;;;;8.18;6.18;;;;;;;21.10;100.00;101180.50;4881014;29;20120;-66
2021/08/21 03:41:07;;;;;;;11.05;6.45;;;;;;;21.35;100.00;101182.72;4881454;29;20039;-66
2021/08/21 03:43:53;;;;;;;7.50;6.25;;;;;;;21.13;100.00;101185.66;4880262;29;20029;-66
2021/08/21 03:46:39;;;;;;;11.93;6.25;;;;;;;21.46;100.00;101188.34;4879708;29;20025;-66
2021/08/21 03:49:25;;;;;;;9.10;6.43;;;;;;;21.26;100.00;101196.56;4879772;29;20026;-66
2021/08/21 03:52:10;;;;;;;9.27;6.22;;;;;;;21.26;100.00;101194.72;4879974;29;20043;-66
2021/08/21 03:54:56;;;;;;;8.77;5.95;;;;;;;21.05;100.00;101192.38;4881364;29;20049;-66
2021/08/21 03:57:42;;;;;;;8.60;6.57;;;;;;;21.37;100.00;101196.81;4867197;29;20036;-66
2021/08/21 04:00:27;;;;;;;9.07;6.68;;;;;;;21.37;100.00;101199.47;4879736;29;20025;-66
2021/08/21 04:03:13;;;;;;;7.80;6.50;;;;;;;21.47;100.00;101192.72;4866949;29;20100;-66
2021/08/21 04:05:59;;;;;;;8.27;6.53;;;;;;;21.34;100.00;101194.34;4881219;29;20467;-65
2021/08/21 04:08:45;;;;;;;9.48;6.32;;;;;;;21.26;100.00;101194.72;4882250;29;20403;-65
2021/08/21 04:11:30;;;;;;;11.10;6.47;;;;;;;21.30;100.00;101198.09;4883211;29;20116;-65
2021/08/21 04:14:16;;;;;;;8.65;6.38;;;;;;;21.34;100.00;101195.16;4884159;29;20028;-65
2021/08/21 04:17:02;;;;;;;9.75;6.20;;;;;;;21.05;100.00;101197.69;4871247;29;20081;-66
2021/08/21 04:19:48;;;;;;;7.97;6.32;;;;;;;21.44;100.00;101201.75;4871550;29;20405;-65
2021/08/21 04:22:34;;;;;;;9.00;6.43;;;;;;;21.07;100.00;101196.66;4884619;29;20440;-66
2021/08/21 04:25:19;;;;;;;12.15;6.90;;;;;;;21.22;100.00;101203.81;4883152;29;20107;-66
2021/08/21 04:28:05;;;;;;;11.57;6.50;;;;;;;21.34;100.00;101205.00;4882782;29;20033;-66
2021/08/21 04:30:51;;;;;;;8.32;6.32;;;;;;;21.56;100.00;101209.06;4883157;29;20033;-66
2021/08/21 04:33:37;;;;;;;9.38;6.97;;;;;;;21.42;100.00;101208.94;4883143;29;20033;-66
2021/08/21 04:36:23;;;;;;;10.43;6.78;;;;;;;21.75;100.00;101211.63;4884434;29;20036;-67
2021/08/21 04:39:08;;;;;;;10.85;6.55;;;;;;;21.83;100.00;101207.56;4883065;29;20033;-66
2021/08/21 04:41:54;;;;;;;10.80;6.72;;;;;;;22.00;100.00;101211.97;4883119;29;20021;-66
2021/08/21 04:44:40;;;;;;;8.55;6.50;;;;;;;21.73;100.00;101209.03;4870762;29;20133;-66
2021/08/21 04:47:27;;;;;;;8.00;6.80;;;;;;;22.29;100.00;101213.81;4882632;29;20536;-66
2021/08/21 04:50:13;;;;;;;9.10;6.78;;;;;;;22.34;100.00;101211.78;4870764;29;20073;-66
2021/08/21 04:52:58;;;;;;;9.57;6.38;;;;;;;22.33;100.00;101221.56;4869310;29;20033;-67
2021/08/21 04:55:44;;;;;;;9.65;7.32;;;;;;;22.24;100.00;101210.56;4884173;29;20378;-66
2021/08/21 04:58:30;;;;;;;7.85;6.38;;;;;;;22.29;100.00;101216.50;4869312;29;20033;-67
2021/08/21 05:01:16;;;;;;;9.98;6.18;;;;;;;22.02;100.00;101218.94;4882682;29;20029;-65
2021/08/21 05:04:02;;;;;;;7.13;6.30;;;;;;;21.80;100.00;101220.22;4870437;29;20462;-66
2021/08/21 05:06:48;;;;;;;7.10;6.05;;;;;;;21.89;100.00;101225.91;4882485;29;20108;-65
2021/08/21 05:09:34;;;;;;;8.85;6.55;;;;;;;22.02;100.00;101226.09;4884042;29;20075;-66
2021/08/21 05:12:19;;;;;;;11.00;6.15;;;;;;;22.45;100.00;101222.66;4881018;29;20021;-65
2021/08/21 05:15:07;;;;;;;7.65;6.47;;;;;;;22.72;100.00;101224.63;4869993;29;20033;-65
2021/08/21 05:17:56;;;;;;;9.23;6.63;;;;;;;22.34;100.00;101223.28;4882371;29;20383;-65
2021/08/21 05:20:51;;;;;;;10.77;6.95;;;;;;;22.45;100.00;101228.88;4882185;29;20056;-65
2021/08/21 05:23:41;;;;;;;9.63;7.18;;;;;;;22.45;100.00;101225.34;4883436;29;20037;-65
2021/08/21 05:26:27;;;;;;;11.00;7.07;;;;;;;22.57;100.00;101230.88;4883093;29;20453;-65
2021/08/21 05:29:17;;;;;;;9.18;6.90;;;;;;;22.92;100.00;101235.00;4881776;29;20474;-65
2021/08/21 05:32:04;;;;;;;9.45;7.15;;;;;;;22.70;100.00;101242.53;4881797;29;20045;-66
2021/08/21 05:34:50;;;;;;;10.15;6.65;;;;;;;22.83;100.00;101237.34;4881791;29;20029;-65
2021/08/21 05:37:36;;;;;;;10.07;6.57;;;;;;;23.00;100.00;101239.84;4882200;29;20029;-65
2021/08/21 05:40:21;;;;;;;9.38;6.40;;;;;;;23.36;100.00;101243.84;4883333;29;20374;-66
2021/08/21 05:43:08;;;;;;;11.43;6.65;;;;;;;23.61;100.00;101236.97;4883971;29;20101;-65
2021/08/21 05:45:54;;;;;;;8.57;6.22;;;;;;;23.59;100.00;101241.56;4881665;29;20093;-66
2021/08/21 05:48:39;;;;;;;9.43;6.22;;;;;;;23.50;100.00;101242.16;4868585;29;20033;-65
2021/08/21 05:51:25;;;;;;;8.68;6.10;;;;;;;23.26;100.00;101242.69;4868234;29;20044;-65
2021/08/21 05:54:11;;;;;;;8.57;6.30;;;;;;;23.83;100.00;101238.19;4881373;29;20049;-65
2021/08/21 05:56:57;;;;;;;7.18;6.30;;;;;;;23.87;100.00;101241.53;4881803;29;20097;-66
2021/08/21 05:59:43;;;;;;;9.00;6.35;;;;;;;23.66;100.00;101234.88;4882835;29;20057;-66
2021/08/21 06:02:29;;;;;;;9.38;6.20;;;;;;;23.75;100.00;101234.28;4881644;29;20097;-66
2021/08/21 06:05:15;;;;;;;8.15;5.93;;;;;;;24.02;100.00;101243.28;4882663;29;20044;-66
2021/08/21 06:08:00;;;;;;;10.63;5.90;;;;;;;23.83;100.00;101235.50;4881423;29;20363;-66
2021/08/21 06:10:46;;;;;;;7.07;5.72;;;;;;;23.91;100.00;101238.59;4881059;29;20060;-66
2021/08/21 06:13:32;;;;;;;10.98;5.70;;;;;;;24.50;99.92;101232.00;4869020;29;20038;-66
2021/08/21 06:16:18;;;;;;;11.43;6.43;;;;;;;24.38;99.87;101238.16;4880990;29;20028;-67
2021/08/21 06:19:04;;;;;;;11.98;8.45;;;;;;;24.58;98.86;101240.38;4868437;29;20021;-67
2021/08/21 06:21:50;;;;;;;13.13;8.07;;;;;;;24.94;97.41;101232.56;4880467;29;20108;-66
2021/08/21 06:24:35;;;;;;;9.02;6.07;;;;;;;24.85;96.03;101238.56;4868194;29;20061;-66
2021/08/21 06:27:21;;;;;;;7.75;5.90;;;;;;;25.10;94.56;101236.78;4880840;29;20515;-66
2021/08/21 06:30:10;;;;;;;10.60;5.97;;;;;;;24.84;97.03;101242.22;4882227;29;20040;-67
2021/08/21 06:32:56;;;;;;;7.85;5.63;;;;;;;25.20;96.33;101242.38;4882735;29;20032;-67
2021/08/21 06:35:47;;;;;;;7.25;6.03;;;;;;;25.28;94.87;101246.25;4867541;29;20080;-66
2021/08/21 06:38:37;;;;;;;10.07;5.82;;;;;;;25.41;94.88;101246.25;4868881;29;20040;-66
2021/08/21 06:41:23;;;;;;;8.52;5.97;;;;;;;25.70;92.50;101247.72;4880581;29;20096;-66
2021/08/21 06:44:09;;;;;;;14.60;6.45;;;;;;;25.89;90.02;101250.81;4868331;29;20127;-66
2021/08/21 06:46:54;;;;;;;9.80;5.82;;;;;;;25.74;88.94;101246.53;4880554;29;20048;-66
2021/08/21 06:49:40;;;;;;;7.32;5.63;;;;;;;25.74;85.88;101250.09;4880765;29;20040;-66
2021/08/21 06:52:29;;;;;;;12.02;5.88;;;;;;;26.08;88.62;101252.06;4882466;29;20056;-67
2021/08/21 06:55:15;;;;;;;9.32;6.57;;;;;;;26.18;98.53;101246.88;4880553;29;20159;-66
2021/08/21 06:58:01;;;;;;;8.38;6.40;;;;;;;26.46;99.56;101258.19;4867969;29;20040;-67
2021/08/21 07:00:47;;;;;;;12.23;6.40;;;;;;;26.63;99.92;101251.53;4880695;29;20029;-67
2021/08/21 07:03:32;;;;;;;9.00;7.10;;;;;;;26.52;100.00;101246.13;4880598;29;20033;-67
2021/08/21 07:06:18;;;;;;;9.63;6.38;;;;;;;27.27;96.33;101262.69;4880073;29;20036;-66
2021/08/21 07:09:04;;;;;;;8.88;6.55;;;;;;;26.75;99.25;101256.88;4881715;29;20370;-66
2021/08/21 07:11:50;;;;;;;9.73;6.88;;;;;;;26.36;100.00;101264.34;4880778;29;20064;-66
2021/08/21 07:14:35;;;;;;;9.52;6.35;;;;;;;26.61;98.18;101256.19;4882055;29;20047;-67
2021/08/21 07:17:21;;;;;;;10.52;6.55;;;;;;;26.89;97.53;101264.72;4881634;29;20451;-67
2021/08/21 07:20:07;;;;;;;9.32;6.85;;;;;;;27.03;95.37;101263.66;4882396;29;20029;-66
2021/08/21 07:22:53;;;;;;;11.02;7.50;;;;;;;27.17;91.41;101268.88;4869519;29;20044;-65
2021/08/21 07:25:39;;;;;;;12.90;7.10;;;;;;;27.04;94.06;101270.75;4867136;29;20029;-65
2021/08/21 07:28:25;;;;;;;9.73;6.43;;;;;;;27.06;94.50;101260.75;4879551;29;20096;-65
2021/08/21 07:31:10;;;;;;;11.75;6.43;;;;;;;27.39;92.11;101266.22;4880110;29;20370;-66
2021/08/21 07:33:56;;;;;;;10.23;6.80;;;;;;;27.62;90.21;101270.66;4880365;29;20041;-66
2021/08/21 07:36:42;;;;;;;9.13;6.78;;;;;;;27.58;90.48;101265.63;4867822;29;20120;-66
2021/08/21 07:39:28;;;;;;;9.18;6.38;;;;;;;27.39;93.48;101275.19;4880949;29;20095;-66
2021/08/21 07:42:14;;;;;;;7.68;6.40;;;;;;;27.55;91.47;101269.44;4867672;29;20040;-67
2021/08/21 07:44:59;;;;;;;7.15;6.45;;;;;;;27.95;90.29;101277.91;4884319;29;20037;-66
2021/08/21 07:47:49;;;;;;;8.18;6.75;;;;;;;28.16;89.86;101270.81;4871290;29;20033;-66
2021/08/21 07:50:35;;;;;;;9.65;6.80;;;;;;;28.15;89.79;101280.72;4883478;29;20025;-66
2021/08/21 07:53:21;;;;;;;9.60;7.05;;;;;;;28.14;88.81;101281.69;4884281;29;20053;-66
2021/08/21 07:56:07;;;;;;;7.13;6.43;;;;;;;28.12;90.60;101274.72;4883731;29;20041;-66
2021/08/21 07:58:52;;;;;;;8.65;6.20;;;;;;;28.18;89.87;101276.91;4885365;29;20201;-66
2021/08/21 08:01:38;;;;;;;9.25;6.68;;;;;;;28.35;86.66;101274.53;4883496;29;20044;-66
2021/08/21 08:04:24;;;;;;;8.15;5.78;;;;;;;28.43;85.27;101274.81;4870174;29;20029;-66
2021/08/21 08:07:10;;;;;;;8.45;6.50;;;;;;;28.58;83.50;101268.16;4870322;29;20029;-66
2021/08/21 08:09:55;;;;;;;6.82;5.93;;;;;;;28.54;81.32;101276.59;4883312;29;20025;-66
2021/08/21 08:12:41;;;;;;;9.35;6.32;;;;;;;28.92;72.54;101261.59;4885190;29;20108;-66
2021/08/21 08:15:27;;;;;;;8.80;6.07;;;;;;;29.33;69.09;101275.13;4884367;29;20120;-66
2021/08/21 08:18:13;;;;;;;7.00;5.80;;;;;;;29.58;66.16;101277.44;4882895;29;20084;-66
2021/08/21 08:20:59;;;;;;;7.95;6.13;;;;;;;29.82;64.04;101279.84;4882361;29;20328;-66
2021/08/21 08:23:46;;;;;;;7.35;5.72;;;;;;;30.39;61.18;101269.22;4883095;29;20511;-66
2021/08/21 08:26:32;;;;;;;11.45;5.88;;;;;;;30.36;58.00;101270.38;4883074;29;20041;-66
2021/08/21 08:29:17;;;;;;;12.32;6.25;;;;;;;30.56;57.31;101272.09;4883834;29;20029;-66
2021/08/21 08:32:03;;;;;;;7.72;5.57;;;;;;;31.04;52.91;101272.13;4883052;29;20457;-66
2021/08/21 08:34:49;;;;;;;8.05;5.55;;;;;;;30.74;54.74;101264.16;4882961;29;20041;-66
2021/08/21 08:37:35;;;;;;;7.22;5.68;;;;;;;31.17;51.98;101262.69;4883055;29;20032;-67
2021/08/21 08:40:22;;;;;;;7.72;5.97;;;;;;;31.43;52.63;101266.50;4882898;29;20056;-67
2021/08/21 08:43:08;;;;;;;9.07;5.60;;;;;;;31.99;52.91;101271.03;4883690;29;20033;-67
2021/08/21 08:45:55;;;;;;;5.78;5.18;;;;;;;31.26;51.57;101261.03;4884056;29;20093;-67
2021/08/21 08:48:41;;;;;;;7.35;5.18;;;;;;;31.51;53.04;101270.34;4882634;29;20033;-66
2021/08/21 08:51:27;;;;;;;9.57;5.25;;;;;;;31.92;51.83;101270.78;4884423;29;20037;-66
2021/08/21 08:54:13;;;;;;;11.30;5.85;;;;;;;32.14;50.69;101259.53;4882757;29;20049;-66
2021/08/21 08:56:59;;;;;;;7.18;5.45;;;;;;;32.08;50.78;101267.41;4883648;29;20346;-67
2021/08/21 08:59:45;;;;;;;9.45;5.47;;;;;;;31.81;50.68;101262.00;4882381;29;20060;-66
2021/08/21 09:02:36;;;;;;;12.30;5.47;;;;;;;31.83;49.83;101263.56;4883938;29;20065;-67
2021/08/21 09:05:25;;;;;;;6.93;5.15;;;;;;;31.66;46.98;101256.16;4882177;29;20119;-66
2021/08/21 09:08:24;;;;;;;6.60;4.80;;;;;;;32.03;47.21;101256.19;4882222;29;20043;-66
2021/08/21 09:11:23;;;;;;;7.47;5.22;;;;;;;32.08;46.19;101252.03;4882311;29;20028;-66
2021/08/21 09:14:21;;;;;;;6.78;5.20;;;;;;;31.90;46.49;101250.25;4882414;29;20032;-66
2021/08/21 09:17:18;;;;;;;8.20;4.97;;;;;;;31.82;45.37;101252.88;4881958;29;20124;-66
2021/08/21 09:20:06;;;;;;;7.25;5.25;;;;;;;32.13;43.21;101252.41;4870247;29;20040;-66
2021/08/21 09:22:52;;;;;;;9.10;4.80;;;;;;;32.31;43.85;101247.91;4883521;29;20519;-67
2021/08/21 09:25:37;;;;;;;6.38;4.85;;;;;;;32.25;44.36;101250.31;4882077;29;20052;-67
2021/08/21 09:28:26;;;;;;;6.63;4.85;;;;;;;32.72;44.42;101239.16;4883395;29;20041;-65
2021/08/21 09:31:17;;;;;;;8.40;4.70;;;;;;;32.68;44.40;101242.34;4882189;29;20036;-66
2021/08/21 09:34:06;;;;;;;5.80;4.55;;;;;;;31.87;41.18;101239.72;4881946;29;20039;-66
2021/08/21 09:36:52;;;;;;;6.00;4.43;;;;;;;32.52;42.46;101236.75;4882608;29;20456;-67
2021/08/21 09:39:40;;;;;;;7.35;4.85;;;;;;;33.04;42.71;101241.31;4882009;29;20124;-66
2021/08/21 09:42:37;;;;;;;6.80;4.80;;;;;;;32.49;41.91;101232.50;4883346;29;20045;-66
2021/08/21 09:45:24;;;;;;;6.82;5.03;;;;;;;32.99;40.28;101232.81;4882292;29;20032;-66
2021/08/21 09:48:10;;;;;;;8.77;5.03;;;;;;;32.99;40.57;101228.19;4882700;29;20092;-66
2021/08/21 09:50:56;;;;;;;12.32;5.05;;;;;;;33.25;40.73;101226.38;4882691;29;20518;-66
2021/08/21 09:53:42;;;;;;;6.35;5.03;;;;;;;32.48;39.88;101225.38;4881884;29;20076;-66
2021/08/21 09:56:56;;;;;;;5.28;4.32;;;;;;;32.89;40.69;101229.31;4869888;29;20029;-66
2021/08/21 09:59:45;;;;;;;6.93;4.95;;;;;;;32.96;40.24;101222.25;4881009;29;20515;-66
2021/08/21 10:02:32;;;;;;;8.60;4.57;;;;;;;33.06;39.19;101228.44;4881324;29;20037;-66
2021/08/21 10:05:19;;;;;;;6.78;5.00;;;;;;;33.43;38.70;101229.91;4881150;29;20037;-66
2021/08/21 10:08:12;;;;;;;9.95;4.40;;;;;;;33.30;38.50;101229.44;4881138;29;20029;-66
2021/08/21 10:10:59;;;;;;;5.93;4.78;;;;;;;32.60;39.25;101228.69;4869002;29;20033;-66
2021/08/21 10:13:46;;;;;;;7.22;4.82;;;;;;;32.32;40.20;101229.75;4882958;29;20047;-66
2021/08/21 10:16:33;;;;;;;6.78;4.38;;;;;;;31.58;40.32;101223.53;4881026;29;20033;-66
2021/08/21 10:19:22;;;;;;;6.78;4.63;;;;;;;31.55;40.01;101223.00;4881224;29;20029;-66
2021/08/21 10:22:09;;;;;;;5.30;4.68;;;;;;;32.03;39.91;101226.34;4880810;29;20450;-66
2021/08/21 10:25:04;;;;;;;5.63;4.60;;;;;;;32.10;38.72;101219.31;4881129;29;20115;-66
2021/08/21 10:27:58;;;;;;;5.88;4.47;;;;;;;33.02;37.74;101221.63;4881064;29;20044;-67
2021/08/21 10:30:46;;;;;;;7.10;4.65;;;;;;;33.38;37.23;101218.66;4881340;29;20037;-66
2021/08/21 10:33:58;;;;;;;8.13;4.63;;;;;;;32.74;37.28;101210.00;4881332;29;20443;-67
2021/08/21 10:36:50;;;;;;;12.05;4.45;;;;;;;32.74;34.97;101204.56;4881866;29;20120;-67
2021/08/21 10:39:37;;;;;;;8.07;4.68;;;;;;;32.61;35.91;101205.97;4881054;29;20050;-67
2021/08/21 10:42:30;;;;;;;10.45;4.88;;;;;;;32.46;37.16;101213.78;4880593;29;20040;-67
2021/08/21 10:45:42;;;;;;;8.57;4.82;;;;;;;32.86;36.96;101208.75;4882132;29;20041;-67
2021/08/21 10:48:48;;;;;;;8.07;4.40;;;;;;;32.65;36.23;101208.22;4881833;29;20040;-66
2021/08/21 10:51:46;;;;;;;11.52;4.55;;;;;;;32.88;35.32;101206.75;4877681;29;20045;-66
2021/08/21 10:54:31;;;;;;;6.20;4.18;;;;;;;32.61;36.12;101203.25;4880110;29;20474;-66
2021/08/21 10:57:28;;;;;;;5.18;4.50;;;;;;;32.70;36.63;101196.91;4880687;29;20101;-65
2021/08/21 11:00:40;;;;;;;6.07;4.65;;;;;;;33.35;36.15;101202.69;4880137;29;20068;-66
2021/08/21 11:03:26;;;;;;;5.20;4.63;;;;;;;33.27;35.72;101205.31;4881951;29;20036;-67
2021/08/21 11:06:13;;;;;;;4.80;4.30;;;;;;;33.60;35.55;101203.69;4879957;29;20411;-67
2021/08/21 11:09:04;;;;;;;6.05;4.40;;;;;;;33.33;34.40;101202.00;4880422;29;20029;-67
2021/08/21 11:11:51;;;;;;;6.68;4.50;;;;;;;33.06;33.55;101196.69;4880070;29;20029;-66
2021/08/21 11:14:42;;;;;;;5.65;4.20;;;;;;;33.69;33.94;101202.69;4881925;29;20048;-67
2021/08/21 11:17:33;;;;;;;6.30;4.35;;;;;;;33.17;34.73;101198.28;4868089;29;20025;-67
2021/08/21 11:20:31;;;;;;;8.50;4.60;;;;;;;33.36;34.18;101200.81;4881701;29;20028;-67
2021/08/21 11:23:18;;;;;;;5.40;4.38;;;;;;;32.59;34.09;101194.44;4880807;29;20526;-67
2021/08/21 11:26:23;;;;;;;4.32;3.92;;;;;;;32.95;34.43;101191.50;4881426;29;20411;-67
2021/08/21 11:29:10;;;;;;;6.38;4.85;;;;;;;33.40;34.50;101192.19;4881598;29;20032;-68
2021/08/21 11:32:00;;;;;;;7.20;4.45;;;;;;;33.72;33.65;101191.50;4882019;29;20044;-67
2021/08/21 11:34:46;;;;;;;6.95;4.80;;;;;;;34.11;33.72;101187.25;4879971;29;20037;-67
2021/08/21 11:37:34;;;;;;;7.88;4.90;;;;;;;33.90;33.73;101184.97;4880612;29;20123;-67
2021/08/21 11:40:22;;;;;;;12.27;4.70;;;;;;;33.61;33.25;101176.34;4879986;29;20340;-66
2021/08/21 11:43:10;;;;;;;6.40;4.10;;;;;;;33.86;33.90;101180.00;4880322;29;20029;-66
2021/08/21 11:45:58;;;;;;;6.68;4.63;;;;;;;33.94;33.81;101182.75;4879928;29;20033;-67
2021/08/21 11:48:44;;;;;;;6.15;4.40;;;;;;;34.22;34.08;101186.91;4879906;29;20021;-67
2021/08/21 11:51:33;;;;;;;5.95;4.45;;;;;;;34.31;34.07;101183.25;4880186;29;20359;-67
2021/08/21 11:54:19;;;;;;;7.43;4.38;;;;;;;33.76;34.34;101182.00;4881275;29;20053;-67
2021/08/21 11:57:05;;;;;;;5.93;4.35;;;;;;;33.40;34.73;101178.63;4880556;29;20412;-67
2021/08/21 11:59:50;;;;;;;7.25;4.82;;;;;;;34.06;34.01;101170.56;4879698;29;20029;-67
2021/08/21 12:02:50;;;;;;;9.82;4.47;;;;;;;33.91;33.66;101177.69;4881673;29;20040;-66
2021/08/21 12:05:44;;;;;;;7.55;4.32;;;;;;;34.04;33.38;101167.16;4881437;29;20466;-67
2021/08/21 12:08:30;;;;;;;7.07;4.32;;;;;;;33.91;33.70;101164.91;4879842;29;20037;-67
2021/08/21 12:11:16;;;;;;;5.03;4.53;;;;;;;33.77;32.77;101176.41;4881224;29;20051;-66
2021/08/21 12:14:02;;;;;;;5.47;4.68;;;;;;;33.23;33.80;101159.63;4879800;29;20374;-67
2021/08/21 12:16:50;;;;;;;5.38;4.30;;;;;;;33.70;33.18;101166.31;4880017;29;20137;-67
2021/08/21 12:19:36;;;;;;;5.43;4.72;;;;;;;33.34;33.80;101164.81;4880492;29;20382;-66
2021/08/21 12:22:22;;;;;;;6.82;4.65;;;;;;;33.49;33.92;101163.19;4879677;29;20074;-66
2021/08/21 12:25:08;;;;;;;8.57;4.55;;;;;;;32.95;33.88;101153.50;4879690;29;20044;-66
2021/08/21 12:28:09;;;;;;;11.27;4.60;;;;;;;33.61;33.67;101151.00;4880130;29;20105;-66
2021/08/21 12:31:04;;;;;;;4.78;4.30;;;;;;;33.63;33.18;101143.56;4883789;29;20108;-66
2021/08/21 12:33:56;;;;;;;5.93;4.45;;;;;;;33.99;32.68;101140.44;4883160;29;20044;-67
2021/08/21 12:36:44;;;;;;;13.70;10.35;;;;;;;34.20;31.77;101131.81;4884337;29;20084;-67
2021/08/21 12:39:30;;;;;;;7.80;5.05;;;;;;;33.98;32.10;101138.75;4883156;29;20025;-67
2021/08/21 12:42:21;;;;;;;7.75;5.35;;;;;;;33.96;32.33;101137.22;4882520;29;20041;-67
2021/08/21 12:45:25;;;;;;;8.68;6.05;;;;;;;33.96;32.01;101142.66;4883172;29;20040;-66
2021/08/21 12:48:11;;;;;;;8.38;5.18;;;;;;;34.34;32.24;101131.19;4882949;29;20036;-67
2021/08/21 12:50:57;;;;;;;5.43;4.40;;;;;;;33.60;31.73;101133.88;4884277;29;20125;-66
2021/08/21 12:53:43;;;;;;;5.13;4.63;;;;;;;34.01;29.37;101126.69;4870113;29;20092;-67